Idleyld Park, OR (97447)

3:11 PM PDT on October 20, 2014 (GMT -0700)
APRSWXNET Roseburg OR US | Change Station
CLOSE
Current Station
Personal Weather Station
Location: Wilbur, OR
Elevation: 472 ft
Nearby Weather Stations

Elev 472 ft 43.31 °N, 123.37 °W | Updated 38 minutes ago

Overcast
Overcast
65 °F
Feels Like 65 °F
N
4
Wind Variable Wind from NE
Gusts 9.0 mph

Today
High -- | Low -- °F
--% Chance of Precip.
Yesterday
High -- | Low -- °F
Precip. -- in
7:32 AM 6:20 PM
Waning Crescent, 9% visible
Pressure 29.82 in
Visibility 10.0 miles
Clouds Few 3900 ft
Scattered Clouds 11000 ft
Dew Point 55 °F
Humidity 71%
Rainfall 0.32 in
Snow Depth Not available.
UV 3 out of 12
Pollen .30 out of 12
Air Quality Not available.
Flu Activity Sporadic
METAR KRBG 202153Z AUTO 16007KT 10SM FEW039 SCT110 18/12 A2982 RMK AO2 SLP097 T01830117

More Conditions Fewer Conditions

Pressure 29.82 in
Visibility 10.0 miles
Clouds Few 3900 ft
Scattered Clouds 11000 ft
Dew Point 55 °F
Humidity 71%
Rainfall 0.32 in
Snow Depth Not available.
UV 3 out of 12
Pollen .30 out of 12
Air Quality Not available.
Flu Activity Sporadic
METAR KRBG 202153Z AUTO 16007KT 10SM FEW039 SCT110 18/12 A2982 RMK AO2 SLP097 T01830117

More Conditions Fewer Conditions

10-Day Weather Forecast

Almanac

Astronomy

Oct. 20, 2014 Rise Set
Actual Time 7:32 AM PDT 6:20 PM PDT
Civil Twilight 7:03 AM PDT 6:49 PM PDT
Nautical Twilight 6:29 AM PDT 7:22 PM PDT
Astronomical Twilight 5:56 AM PDT 7:55 PM PDT
Moon 4:20 AM PDT 4:50 PM PDT
Length of Visible Light 11h 46m
Length of Day
10h 48m
Waning Crescent, 9% of the Moon is Illuminated
Today
Waning Crescent
Oct 23
New
Oct 30
First Quarter
Nov 6
Full
Nov 14
Last Quarter

Today's Extremes

State Highs State Lows

Community

WunderPhotos

Upload Photos

1,763,531 photos uploaded!

WunderBlogs® & News

By Dr. Jeff Masters
Director of Meteorology, Weather Underground
By Kari Strenfel
Meteorologist, Weather Underground
By Christopher C. Burt
Weather Historian, Weather Underground
October 20, 2014
October 20, 2014
October 20, 2014

Nearby

Snow Depth

Station Depth Elevation
Holland Meadows 0 in 4900 ft
Diamond Lake 0 in 5315 ft
Salt Creek Falls 0 in 4000 ft
Cascade Summit 0 in 4880 ft
New Crescent Lake 0 in 4800 ft

Earthquake Activity

City Distance Mag. Time & Date
No recent earthquake activity has been reported nearby.
Minimum magnitude displayed is 2.5.

Coastal Water Temperatures

Place Temperature
No Stations Reporting

Nearby Weather Stations